createdAt,value
2018-04-23T00:01:33.645Z,12.87
2018-04-23T00:04:01.299Z,14.27
2018-04-23T00:06:28.947Z,11.33
2018-04-23T00:08:56.627Z,13.37
2018-04-23T00:11:25.062Z,13.60
2018-04-23T00:13:52.738Z,12.73
2018-04-23T00:16:20.397Z,11.83
2018-04-23T00:18:48.007Z,12.77
2018-04-23T00:21:16.408Z,15.40
2018-04-23T00:23:44.040Z,16.97
2018-04-23T00:26:11.672Z,15.40
2018-04-23T00:28:39.326Z,16.87
2018-04-23T00:31:06.943Z,14.57
2018-04-23T00:33:34.532Z,17.37
2018-04-23T00:36:02.214Z,15.93
2018-04-23T00:38:29.804Z,16.13
2018-04-23T00:40:58.192Z,14.03
2018-04-23T00:43:25.814Z,11.77
2018-04-23T00:45:53.482Z,13.17
2018-04-23T00:48:21.061Z,16.47
2018-04-23T00:50:49.464Z,14.63
2018-04-23T00:53:28.873Z,14.30
2018-04-23T00:55:57.300Z,13.23
2018-04-23T00:58:24.900Z,14.60
2018-04-23T01:00:52.491Z,12.20
2018-04-23T01:03:20.095Z,18.70
2018-04-23T01:05:47.789Z,18.07
2018-04-23T01:08:16.202Z,15.90
2018-04-23T01:10:43.878Z,15.60
2018-04-23T01:13:11.435Z,15.77
2018-04-23T01:15:39.070Z,15.03
2018-04-23T01:18:06.744Z,16.20
2018-04-23T01:20:34.391Z,15.33
2018-04-23T01:23:02.038Z,13.17
2018-04-23T01:25:29.778Z,17.03
2018-04-23T01:27:57.372Z,13.67
2018-04-23T01:30:25.024Z,16.07
2018-04-23T01:32:53.481Z,13.33
2018-04-23T01:35:21.178Z,16.37
2018-04-23T01:37:48.788Z,13.20
2018-04-23T01:40:16.414Z,14.23
2018-04-23T01:42:44.005Z,16.23
2018-04-23T01:45:11.632Z,15.60
2018-04-23T01:47:39.274Z,16.73
2018-04-23T01:50:06.889Z,15.10
2018-04-23T01:52:34.533Z,13.93
2018-04-23T01:55:02.372Z,15.37
2018-04-23T01:57:30.003Z,15.77
2018-04-23T01:59:58.422Z,15.87
2018-04-23T02:02:26.051Z,14.10
2018-04-23T02:04:54.415Z,14.23
2018-04-23T02:07:23.713Z,14.60
2018-04-23T02:09:52.073Z,15.67
2018-04-23T02:12:19.699Z,18.63
2018-04-23T02:14:47.330Z,18.87
2018-04-23T02:17:15.492Z,16.90
2018-04-23T02:19:43.141Z,16.17
2018-04-23T02:22:11.559Z,17.00
2018-04-23T02:24:39.170Z,15.47
2018-04-23T02:27:07.244Z,18.90
2018-04-23T02:29:34.862Z,20.30
2018-04-23T02:32:02.505Z,15.90
2018-04-23T02:34:30.150Z,14.30
2018-04-23T02:36:57.849Z,16.90
2018-04-23T02:39:25.542Z,15.73
2018-04-23T02:41:53.181Z,14.43
2018-04-23T02:44:21.451Z,16.70
2018-04-23T02:46:49.099Z,17.53
2018-04-23T02:49:16.716Z,13.83
2018-04-23T02:51:44.317Z,14.00
2018-04-23T02:54:12.006Z,14.73
2018-04-23T02:56:39.635Z,20.37
2018-04-23T02:59:07.251Z,15.90
2018-04-23T03:01:35.654Z,15.73
2018-04-23T03:04:03.267Z,16.23
2018-04-23T03:06:30.884Z,16.10
2018-04-23T03:08:58.532Z,14.20
2018-04-23T03:11:26.173Z,16.37
2018-04-23T03:13:54.632Z,17.23
2018-04-23T03:16:22.268Z,17.80
2018-04-23T03:18:49.857Z,15.57
2018-04-23T03:21:17.524Z,17.67
2018-04-23T03:23:45.111Z,20.77
2018-04-23T03:26:12.773Z,13.40
2018-04-23T03:28:40.371Z,16.30
2018-04-23T03:31:07.975Z,16.27
2018-04-23T03:33:35.618Z,16.00
2018-04-23T03:36:03.280Z,19.97
2018-04-23T03:38:30.974Z,18.73
2018-04-23T03:40:58.650Z,18.07
2018-04-23T03:43:26.314Z,20.23
2018-04-23T03:45:53.940Z,17.83
2018-04-23T03:48:21.579Z,18.77
2018-04-23T03:50:49.238Z,27.17
2018-04-23T03:53:16.883Z,19.17
2018-04-23T03:55:44.463Z,21.90
2018-04-23T03:58:12.057Z,19.93
2018-04-23T04:00:39.686Z,22.63
2018-04-23T04:03:07.296Z,20.93
2018-04-23T04:05:34.954Z,17.63
2018-04-23T04:08:02.611Z,20.43
2018-04-23T04:10:30.236Z,17.77
2018-04-23T04:13:09.795Z,22.57
2018-04-23T04:15:50.000Z,20.87
2018-04-23T04:18:38.474Z,22.63
2018-04-23T04:21:07.888Z,22.13
2018-04-23T04:23:36.305Z,22.87
2018-04-23T04:26:03.971Z,22.03
2018-04-23T04:28:32.469Z,18.53
2018-04-23T04:31:00.118Z,20.20
2018-04-23T04:33:27.830Z,22.27
2018-04-23T04:35:55.440Z,18.97
2018-04-23T04:38:23.104Z,20.47
2018-04-23T04:40:50.698Z,18.77
2018-04-23T04:43:18.322Z,18.27
2018-04-23T04:45:45.935Z,23.47
2018-04-23T04:48:15.096Z,21.17
2018-04-23T04:50:42.712Z,23.10
2018-04-23T04:53:10.428Z,21.73
2018-04-23T04:55:38.135Z,18.53
2018-04-23T04:58:06.444Z,21.07
2018-04-23T05:00:34.025Z,23.73
2018-04-23T05:03:01.675Z,19.27
2018-04-23T05:05:29.375Z,20.63
2018-04-23T05:07:57.802Z,19.20
2018-04-23T05:10:25.449Z,20.27
2018-04-23T05:12:54.074Z,19.93
2018-04-23T05:15:26.181Z,22.57
2018-04-23T05:17:57.489Z,20.07
2018-04-23T05:20:25.387Z,18.97
2018-04-23T05:23:00.237Z,17.37
2018-04-23T05:25:31.025Z,19.70
2018-04-23T05:28:03.609Z,17.50
2018-04-23T05:30:39.301Z,18.53
2018-04-23T05:33:13.796Z,20.03
2018-04-23T05:35:43.917Z,16.10
2018-04-23T05:38:13.480Z,17.37
2018-04-23T05:40:41.252Z,19.17
2018-04-23T05:43:11.679Z,20.03
2018-04-23T05:45:39.430Z,19.83
2018-04-23T05:48:10.856Z,17.07
2018-04-23T05:50:39.760Z,19.63
2018-04-23T05:53:07.824Z,17.17
2018-04-23T05:55:37.373Z,21.57
2018-04-23T05:58:06.010Z,18.20
2018-04-23T06:00:33.789Z,23.73
2018-04-23T06:03:02.152Z,16.23
2018-04-23T06:05:30.799Z,15.63
2018-04-23T06:07:59.631Z,14.87
2018-04-23T06:10:27.493Z,13.68
2018-04-23T06:12:55.129Z,17.40
2018-04-23T06:15:22.820Z,15.45
2018-04-23T06:17:51.430Z,15.52
2018-04-23T06:20:19.237Z,13.90
2018-04-23T06:22:47.705Z,13.43
2018-04-23T06:25:16.134Z,14.50
2018-04-23T06:27:43.789Z,15.65
2018-04-23T06:30:11.386Z,15.68
2018-04-23T06:32:39.808Z,15.45
2018-04-23T06:35:07.408Z,14.65
2018-04-23T06:37:35.546Z,18.10
2018-04-23T06:40:03.238Z,16.12
2018-04-23T06:42:31.670Z,15.05
2018-04-23T06:45:00.571Z,15.38
2018-04-23T06:47:28.229Z,13.98
2018-04-23T06:49:55.829Z,14.50
2018-04-23T06:52:24.248Z,11.57
2018-04-23T06:54:51.871Z,10.63
2018-04-23T06:57:19.508Z,10.25
2018-04-23T06:59:47.183Z,13.82
2018-04-23T07:02:14.840Z,10.10
2018-04-23T07:04:42.602Z,10.15
2018-04-23T07:07:10.788Z,11.10
2018-04-23T07:09:38.493Z,9.18
2018-04-23T07:12:06.171Z,8.98
2018-04-23T07:14:33.836Z,8.23
2018-04-23T07:17:01.486Z,13.30
2018-04-23T07:19:29.959Z,9.02
2018-04-23T07:21:57.645Z,9.70
2018-04-23T07:24:25.360Z,9.30
2018-04-23T07:26:53.399Z,9.10
2018-04-23T07:29:21.120Z,10.40
2018-04-23T07:31:49.323Z,11.12
2018-04-23T07:34:17.043Z,9.57
2018-04-23T07:36:45.098Z,11.25
2018-04-23T07:39:12.760Z,7.87
2018-04-23T07:41:40.440Z,7.85
2018-04-23T07:44:08.194Z,7.22
2018-04-23T07:46:36.146Z,5.35
2018-04-23T07:49:04.653Z,8.10
2018-04-23T07:51:32.895Z,8.07
2018-04-23T07:54:01.361Z,8.15
2018-04-23T07:56:29.374Z,6.82
2018-04-23T07:58:57.067Z,6.40
2018-04-23T08:01:24.740Z,7.32
2018-04-23T08:03:52.497Z,7.32
2018-04-23T08:06:20.148Z,10.07
2018-04-23T08:08:47.767Z,7.87
2018-04-23T08:11:16.240Z,7.60
2018-04-23T08:13:44.647Z,10.38
2018-04-23T08:16:12.220Z,7.57
2018-04-23T08:18:39.838Z,10.38
2018-04-23T08:21:07.560Z,6.85
2018-04-23T08:23:35.210Z,6.00
2018-04-23T08:26:02.888Z,12.88
2018-04-23T08:28:30.549Z,6.95
2018-04-23T08:30:58.221Z,9.07
2018-04-23T08:33:26.648Z,8.45
2018-04-23T08:35:54.291Z,9.75
2018-04-23T08:38:21.984Z,9.90
2018-04-23T08:40:49.587Z,9.40
2018-04-23T08:43:17.292Z,8.93
2018-04-23T08:45:44.945Z,8.45
2018-04-23T08:48:12.579Z,14.50
2018-04-23T08:50:41.003Z,7.62
2018-04-23T08:53:08.692Z,7.25
2018-04-23T08:55:36.352Z,9.93
2018-04-23T08:58:04.168Z,10.43
2018-04-23T09:00:31.896Z,7.78
2018-04-23T09:02:59.642Z,8.77
2018-04-23T09:05:27.317Z,5.95
2018-04-23T09:07:54.976Z,10.43
2018-04-23T09:10:23.668Z,5.95
2018-04-23T09:12:51.355Z,9.70
2018-04-23T09:15:19.090Z,6.53
2018-04-23T09:17:47.038Z,8.48
2018-04-23T09:20:14.717Z,8.77
2018-04-23T09:22:44.102Z,10.15
2018-04-23T09:25:12.815Z,7.78
2018-04-23T09:27:40.663Z,9.90
2018-04-23T09:30:08.382Z,6.93
2018-04-23T09:32:36.175Z,10.98
2018-04-23T09:35:03.848Z,8.27
2018-04-23T09:37:31.594Z,7.05
2018-04-23T09:39:59.218Z,12.68
2018-04-23T09:42:26.859Z,10.32
2018-04-23T09:44:55.293Z,8.90
2018-04-23T09:47:23.865Z,14.32
2018-04-23T09:49:51.559Z,8.82
2018-04-23T09:52:19.218Z,10.45
2018-04-23T09:54:46.889Z,11.12
2018-04-23T09:57:14.560Z,6.90
2018-04-23T09:59:42.266Z,8.48
2018-04-23T10:02:09.929Z,6.72
2018-04-23T10:04:37.661Z,7.87
2018-04-23T10:07:05.303Z,7.75
2018-04-23T10:09:32.969Z,7.05
2018-04-23T10:12:01.364Z,8.75
2018-04-23T10:14:29.189Z,11.82
2018-04-23T10:16:56.837Z,6.15
2018-04-23T10:19:24.565Z,6.18
2018-04-23T10:21:58.789Z,8.75
2018-04-23T10:24:27.635Z,7.47
2018-04-23T10:26:55.290Z,7.37
2018-04-23T10:29:23.004Z,8.43
2018-04-23T10:31:50.656Z,7.07
2018-04-23T10:34:18.278Z,6.80
2018-04-23T10:36:46.774Z,6.18
2018-04-23T10:39:14.543Z,6.22
2018-04-23T10:41:42.911Z,8.88
2018-04-23T10:44:11.305Z,4.35
2018-04-23T10:46:39.073Z,4.35
2018-04-23T10:49:07.861Z,6.55
2018-04-23T10:51:36.341Z,6.15
2018-04-23T10:54:04.100Z,7.82
2018-04-23T10:56:31.692Z,9.75
2018-04-23T10:58:59.398Z,8.85
2018-04-23T11:01:27.121Z,6.60
2018-04-23T11:03:55.557Z,13.48
2018-04-23T11:06:24.254Z,9.55
2018-04-23T11:08:52.741Z,7.75
2018-04-23T11:11:21.762Z,9.65
2018-04-23T11:13:49.995Z,6.32
2018-04-23T11:16:18.764Z,7.18
2018-04-23T11:18:48.634Z,9.55
2018-04-23T11:21:17.380Z,9.95
2018-04-23T11:23:45.386Z,11.65
2018-04-23T11:26:13.202Z,8.68
2018-04-23T11:28:40.976Z,10.40
2018-04-23T11:31:09.638Z,9.43
2018-04-23T11:33:38.243Z,9.30
2018-04-23T11:36:06.001Z,5.32
2018-04-23T11:38:33.665Z,11.20
2018-04-23T11:41:01.282Z,8.30
2018-04-23T11:43:28.922Z,9.73
2018-04-23T11:45:56.530Z,8.05
2018-04-23T11:48:24.905Z,10.30
2018-04-23T11:50:52.533Z,10.13
2018-04-23T11:53:20.187Z,10.43
2018-04-23T11:55:47.840Z,12.35
2018-04-23T11:58:15.465Z,10.63
2018-04-23T12:00:43.181Z,8.57
2018-04-23T12:03:10.823Z,9.30
2018-04-23T12:05:38.473Z,9.73
2018-04-23T12:08:06.064Z,10.27
2018-04-23T12:10:33.761Z,12.95
2018-04-23T12:13:01.373Z,9.20
2018-04-23T12:15:28.996Z,11.52
2018-04-23T12:17:56.612Z,9.95
2018-04-23T12:20:25.023Z,13.25
2018-04-23T12:22:52.673Z,12.57
2018-04-23T12:25:20.323Z,19.27
2018-04-23T12:27:48.728Z,13.98
2018-04-23T12:30:16.340Z,11.43
2018-04-23T12:32:43.931Z,12.77
2018-04-23T12:35:11.586Z,11.82
2018-04-23T12:37:39.949Z,10.60
2018-04-23T12:40:07.574Z,12.95
2018-04-23T12:42:36.191Z,10.55
2018-04-23T12:45:04.687Z,14.75
2018-04-23T12:47:33.053Z,9.85
2018-04-23T12:50:01.580Z,13.80
2018-04-23T12:52:29.268Z,7.93
2018-04-23T12:54:56.942Z,10.57
2018-04-23T12:57:24.656Z,13.20
2018-04-23T12:59:52.341Z,9.63
2018-04-23T13:02:20.003Z,12.32
2018-04-23T13:04:47.605Z,14.43
2018-04-23T13:07:15.994Z,11.05
2018-04-23T13:09:44.378Z,11.82
2018-04-23T13:12:12.008Z,12.40
2018-04-23T13:14:39.633Z,15.13
2018-04-23T13:17:07.273Z,12.43
2018-04-23T13:19:34.944Z,10.07
2018-04-23T13:22:02.544Z,8.85
2018-04-23T13:24:30.268Z,10.95
2018-04-23T13:26:57.900Z,9.23
2018-04-23T13:29:25.573Z,12.52
2018-04-23T13:31:53.227Z,13.90
2018-04-23T13:34:20.997Z,13.10
2018-04-23T13:36:48.734Z,8.77
2018-04-23T13:39:16.360Z,13.27
2018-04-23T13:41:44.084Z,11.35
2018-04-23T13:44:11.756Z,11.68
2018-04-23T13:46:39.478Z,10.75
2018-04-23T13:49:09.413Z,10.07
2018-04-23T13:51:37.093Z,9.93
2018-04-23T13:54:04.863Z,10.00
2018-04-23T13:56:32.693Z,10.43
2018-04-23T13:59:00.305Z,7.57
2018-04-23T14:01:28.027Z,9.48
2018-04-23T14:03:55.733Z,12.30
2018-04-23T14:06:23.428Z,12.15
2018-04-23T14:08:51.267Z,11.65
2018-04-23T14:11:19.818Z,6.65
2018-04-23T14:13:47.554Z,6.90
2018-04-23T14:16:15.156Z,8.40
2018-04-23T14:18:42.841Z,10.98
2018-04-23T14:21:10.482Z,10.05
2018-04-23T14:23:38.158Z,17.73
2018-04-23T14:26:05.826Z,7.85
2018-04-23T14:28:34.233Z,4.45
2018-04-23T14:31:02.788Z,8.45
2018-04-23T14:33:30.443Z,8.23
2018-04-23T14:35:58.874Z,5.32
2018-04-23T14:38:26.755Z,5.43
2018-04-23T14:40:54.493Z,10.20
2018-04-23T14:43:22.120Z,5.70
2018-04-23T14:45:50.606Z,7.85
2018-04-23T14:48:19.118Z,6.82
2018-04-23T14:50:46.827Z,8.18
2018-04-23T14:53:14.442Z,7.80
2018-04-23T14:55:42.131Z,6.90
2018-04-23T14:58:10.833Z,5.65
2018-04-23T15:00:38.559Z,7.87
2018-04-23T15:03:06.428Z,10.15
2018-04-23T15:05:34.120Z,7.03
2018-04-23T15:08:01.736Z,9.15
2018-04-23T15:10:29.409Z,8.60
2018-04-23T15:12:57.140Z,6.93
2018-04-23T15:15:24.767Z,8.32
2018-04-23T15:17:52.431Z,10.75
2018-04-23T15:20:20.144Z,8.98
2018-04-23T15:22:47.816Z,10.48
2018-04-23T15:25:15.442Z,5.15
2018-04-23T15:27:43.260Z,5.62
2018-04-23T15:30:10.934Z,6.53
2018-04-23T15:32:38.575Z,9.70
2018-04-23T15:35:06.248Z,11.15
2018-04-23T15:37:36.190Z,11.55
2018-04-23T15:40:04.900Z,9.57
2018-04-23T15:42:32.773Z,7.25
2018-04-23T15:45:00.488Z,5.50
2018-04-23T15:47:29.513Z,8.93
2018-04-23T15:49:57.183Z,9.15
2018-04-23T15:52:24.944Z,8.90
2018-04-23T15:54:52.553Z,10.70
2018-04-23T15:57:20.385Z,13.82
2018-04-23T15:59:48.011Z,11.00
2018-04-23T16:02:17.953Z,7.72
2018-04-23T16:04:45.710Z,6.68
2018-04-23T16:07:13.464Z,9.77
2018-04-23T16:09:41.168Z,13.23
2018-04-23T16:12:09.797Z,8.45
2018-04-23T16:14:38.211Z,12.75
2018-04-23T16:17:07.346Z,9.18
2018-04-23T16:19:38.370Z,14.07
2018-04-23T16:22:06.069Z,10.75
2018-04-23T16:24:34.547Z,13.32
2018-04-23T16:27:02.964Z,8.88
2018-04-23T16:29:30.588Z,9.45
2018-04-23T16:31:58.473Z,12.18
2018-04-23T16:34:26.144Z,12.52
2018-04-23T16:36:53.867Z,10.25
2018-04-23T16:39:21.542Z,9.82
2018-04-23T16:41:50.114Z,11.32
2018-04-23T16:44:17.884Z,12.48
2018-04-23T16:46:46.520Z,14.43
2018-04-23T16:49:15.066Z,17.37
2018-04-23T16:51:42.821Z,11.05
2018-04-23T16:54:10.520Z,13.55
2018-04-23T16:56:38.354Z,11.18
2018-04-23T16:59:07.493Z,11.65
2018-04-23T17:01:35.959Z,8.80
2018-04-23T17:04:03.785Z,11.75
2018-04-23T17:06:32.155Z,9.45
2018-04-23T17:08:59.903Z,12.63
2018-04-23T17:11:27.640Z,9.85
2018-04-23T17:13:56.105Z,14.23
2018-04-23T17:16:23.727Z,11.07
2018-04-23T17:18:52.212Z,9.10
2018-04-23T17:21:19.907Z,12.15
2018-04-23T17:23:47.636Z,13.25
2018-04-23T17:26:16.192Z,9.13
2018-04-23T17:28:44.588Z,13.48
2018-04-23T17:31:13.072Z,12.18
2018-04-23T17:33:41.534Z,12.73
2018-04-23T17:36:09.289Z,12.18
2018-04-23T17:38:37.012Z,11.32
2018-04-23T17:41:04.685Z,15.18
2018-04-23T17:43:32.355Z,12.13
2018-04-23T17:46:00.120Z,12.40
2018-04-23T17:48:28.379Z,12.15
2018-04-23T17:50:56.091Z,14.57
2018-04-23T17:53:23.748Z,12.13
2018-04-23T17:55:52.201Z,13.73
2018-04-23T17:58:19.887Z,14.32
2018-04-23T18:00:47.754Z,14.63
2018-04-23T18:03:16.296Z,11.52
2018-04-23T18:05:44.911Z,13.40
2018-04-23T18:08:12.661Z,13.95
2018-04-23T18:10:40.394Z,12.02
2018-04-23T18:13:08.122Z,13.90
2018-04-23T18:15:35.763Z,15.45
2018-04-23T18:18:03.446Z,12.95
2018-04-23T18:20:31.139Z,19.05
2018-04-23T18:22:58.821Z,13.85
2018-04-23T18:25:27.277Z,15.65
2018-04-23T18:27:54.968Z,13.25
2018-04-23T18:30:22.642Z,12.80
2018-04-23T18:32:50.292Z,15.85
2018-04-23T18:35:18.870Z,13.77
2018-04-23T18:37:46.588Z,10.45
2018-04-23T18:40:14.194Z,13.32
2018-04-23T18:42:41.840Z,12.27
2018-04-23T18:45:09.453Z,14.10
2018-04-23T18:47:37.017Z,18.55
2018-04-23T18:50:05.413Z,18.00
2018-04-23T18:52:33.044Z,15.88
2018-04-23T18:55:00.701Z,10.88
2018-04-23T18:57:29.088Z,11.70
2018-04-23T18:59:57.532Z,12.43
2018-04-23T19:02:25.166Z,8.25
2018-04-23T19:04:52.832Z,10.07
2018-04-23T19:07:20.575Z,10.13
2018-04-23T19:09:48.233Z,9.77
2018-04-23T19:12:15.846Z,12.15
2018-04-23T19:14:43.474Z,11.80
2018-04-23T19:17:11.664Z,9.53
2018-04-23T19:19:39.254Z,9.55
2018-04-23T19:22:07.745Z,11.90
2018-04-23T19:24:36.776Z,11.65
2018-04-23T19:27:04.446Z,15.20
2018-04-23T19:29:32.182Z,17.07
2018-04-23T19:31:59.814Z,12.35
2018-04-23T19:34:28.170Z,15.83
2018-04-23T19:36:55.849Z,12.00
2018-04-23T19:39:23.501Z,14.38
2018-04-23T19:41:51.184Z,11.73
2018-04-23T19:44:19.543Z,15.57
2018-04-23T19:46:47.202Z,21.90
2018-04-23T19:49:14.872Z,10.83
2018-04-23T19:51:42.509Z,12.77
2018-04-23T19:54:10.226Z,13.20
2018-04-23T19:56:37.860Z,12.07
2018-04-23T19:59:06.245Z,12.30
2018-04-23T20:01:33.924Z,13.93
2018-04-23T20:04:01.620Z,17.17
2018-04-23T20:06:29.303Z,10.43
2018-04-23T20:08:58.512Z,15.50
2018-04-23T20:11:26.265Z,15.03
2018-04-23T20:13:53.914Z,16.50
2018-04-23T20:16:21.521Z,17.23
2018-04-23T20:18:49.967Z,12.57
2018-04-23T20:21:17.620Z,19.63
2018-04-23T20:23:45.253Z,18.40
2018-04-23T20:26:12.868Z,13.60
2018-04-23T20:28:41.316Z,15.37
2018-04-23T20:31:08.912Z,11.87
2018-04-23T20:33:37.403Z,14.00
2018-04-23T20:36:05.034Z,14.53
2018-04-23T20:38:32.736Z,9.93
2018-04-23T20:41:00.356Z,22.00
2018-04-23T20:43:27.976Z,16.80
2018-04-23T20:45:55.570Z,17.48
2018-04-23T20:48:23.184Z,12.87
2018-04-23T20:50:50.822Z,14.40
2018-04-23T20:53:18.447Z,13.43
2018-04-23T20:55:46.037Z,12.30
2018-04-23T20:58:14.422Z,14.40
2018-04-23T21:00:42.015Z,14.73
2018-04-23T21:03:09.688Z,9.10
2018-04-23T21:05:37.305Z,11.40
2018-04-23T21:08:04.928Z,13.30
2018-04-23T21:10:32.696Z,11.37
2018-04-23T21:13:00.355Z,9.97
2018-04-23T21:15:28.035Z,12.87
2018-04-23T21:17:56.440Z,13.20
2018-04-23T21:20:24.214Z,11.82
2018-04-23T21:22:51.919Z,9.57
2018-04-23T21:25:19.587Z,16.37
2018-04-23T21:27:47.250Z,14.27
2018-04-23T21:30:14.904Z,11.00
2018-04-23T21:32:42.547Z,15.67
2018-04-23T21:35:10.236Z,13.93
2018-04-23T21:37:38.682Z,12.63
2018-04-23T21:40:06.398Z,13.35
2018-04-23T21:42:34.026Z,12.27
2018-04-23T21:45:01.707Z,10.80
2018-04-23T21:47:29.345Z,10.23
2018-04-23T21:49:57.059Z,12.40
2018-04-23T21:52:24.672Z,12.87
2018-04-23T21:54:52.359Z,11.13
2018-04-23T21:57:20.822Z,14.20
2018-04-23T21:59:48.438Z,14.83
2018-04-23T22:02:16.112Z,14.43
2018-04-23T22:04:43.733Z,10.60
2018-04-23T22:07:12.454Z,12.70
2018-04-23T22:09:40.093Z,17.00
2018-04-23T22:12:07.744Z,13.87
2018-04-23T22:14:35.470Z,16.03
2018-04-23T22:17:03.925Z,10.77
2018-04-23T22:19:31.597Z,15.20
2018-04-23T22:21:59.236Z,12.27
2018-04-23T22:24:26.892Z,17.47
2018-04-23T22:26:54.554Z,15.27
2018-04-23T22:29:22.769Z,12.43
2018-04-23T22:31:50.439Z,12.83
2018-04-23T22:34:18.852Z,12.05
2018-04-23T22:36:46.483Z,13.37
2018-04-23T22:39:14.152Z,9.17
2018-04-23T22:41:41.834Z,14.47
2018-04-23T22:44:09.490Z,17.60
2018-04-23T22:46:37.843Z,13.97
2018-04-23T22:49:06.296Z,17.27
2018-04-23T22:51:33.956Z,13.27
2018-04-23T22:54:01.616Z,11.97
2018-04-23T22:56:29.235Z,12.30
2018-04-23T22:58:56.921Z,11.10
2018-04-23T23:01:24.571Z,11.63
2018-04-23T23:03:53.099Z,13.87
2018-04-23T23:06:21.475Z,12.43
2018-04-23T23:08:49.939Z,13.60
2018-04-23T23:11:17.949Z,15.23
2018-04-23T23:13:45.590Z,14.13
2018-04-23T23:16:14.003Z,15.90
2018-04-23T23:18:41.674Z,14.27
2018-04-23T23:21:09.901Z,13.43
2018-04-23T23:23:38.267Z,15.17
2018-04-23T23:26:06.673Z,13.50
2018-04-23T23:28:34.308Z,13.23
2018-04-23T23:31:01.975Z,10.80
2018-04-23T23:33:30.373Z,11.93
2018-04-23T23:35:58.032Z,17.20
2018-04-23T23:38:25.650Z,11.47
2018-04-23T23:40:53.279Z,10.73
2018-04-23T23:43:20.928Z,12.27
2018-04-23T23:45:48.616Z,14.43
2018-04-23T23:48:16.236Z,8.63
2018-04-23T23:50:44.675Z,12.47
2018-04-23T23:53:16.517Z,9.63
2018-04-23T23:55:44.156Z,10.80
2018-04-23T23:58:11.792Z,11.53
